createdAt,value
2017-07-22T00:01:52.110Z,8.57
2017-07-22T00:06:56.101Z,9.60
2017-07-22T00:11:59.311Z,10.40
2017-07-22T00:17:02.528Z,9.60
2017-07-22T00:22:05.710Z,9.63
2017-07-22T00:27:08.947Z,12.60
2017-07-22T00:32:12.164Z,11.57
2017-07-22T00:37:16.141Z,12.07
2017-07-22T00:42:19.333Z,12.00
2017-07-22T00:47:22.530Z,10.73
2017-07-22T00:52:26.621Z,14.53
2017-07-22T00:57:29.845Z,14.03
2017-07-22T01:02:33.844Z,15.87
2017-07-22T01:07:37.063Z,12.87
2017-07-22T01:12:40.259Z,17.50
2017-07-22T01:17:43.461Z,16.17
2017-07-22T01:22:46.661Z,15.03
2017-07-22T01:27:49.853Z,15.93
2017-07-22T01:32:53.066Z,17.00
2017-07-22T01:37:56.277Z,15.27
2017-07-22T01:42:59.482Z,15.50
2017-07-22T01:48:02.692Z,16.30
2017-07-22T01:53:05.893Z,17.67
2017-07-22T01:58:09.085Z,20.30
2017-07-22T02:03:12.266Z,19.13
2017-07-22T02:08:15.441Z,16.40
2017-07-22T02:13:18.665Z,19.03
2017-07-22T02:18:22.827Z,23.43
2017-07-22T02:23:26.020Z,17.90
2017-07-22T02:28:29.237Z,22.13
2017-07-22T02:33:32.442Z,22.30
2017-07-22T02:38:35.658Z,17.93
2017-07-22T02:43:38.881Z,20.20
2017-07-22T02:48:42.088Z,15.83
2017-07-22T02:53:45.273Z,20.27
2017-07-22T02:58:48.495Z,21.73
2017-07-22T03:03:51.685Z,20.53
2017-07-22T03:08:54.873Z,20.87
2017-07-22T03:13:58.055Z,20.00
2017-07-22T03:19:02.014Z,19.00
2017-07-22T03:24:05.188Z,18.03
2017-07-22T03:29:09.146Z,19.77
2017-07-22T03:34:12.348Z,20.37
2017-07-22T03:39:15.537Z,18.97
2017-07-22T03:44:19.492Z,20.93
2017-07-22T03:49:22.686Z,17.87
2017-07-22T03:54:25.885Z,15.93
2017-07-22T03:59:29.827Z,16.60
2017-07-22T04:04:33.024Z,18.80
2017-07-22T04:09:36.231Z,17.33
2017-07-22T04:14:39.423Z,15.67
2017-07-22T04:19:43.383Z,18.30
2017-07-22T04:24:46.589Z,18.07
2017-07-22T04:29:49.784Z,16.80
2017-07-22T04:34:52.985Z,25.13
2017-07-22T04:39:56.192Z,24.40
2017-07-22T04:44:59.684Z,22.80
2017-07-22T04:50:03.721Z,18.33
2017-07-22T04:55:07.648Z,17.27
2017-07-22T05:00:10.843Z,17.20
2017-07-22T05:05:14.041Z,20.73
2017-07-22T05:10:18.010Z,22.17
2017-07-22T05:15:21.189Z,22.50
2017-07-22T05:20:24.397Z,19.07
2017-07-22T05:25:27.574Z,17.37
2017-07-22T05:30:30.784Z,20.00
2017-07-22T05:35:34.738Z,17.60
2017-07-22T05:40:37.945Z,19.13
2017-07-22T05:45:41.152Z,20.90
2017-07-22T05:50:44.369Z,22.13
2017-07-22T05:55:47.558Z,26.30
2017-07-22T06:00:50.933Z,25.57
2017-07-22T06:05:54.179Z,27.07
2017-07-22T06:10:57.484Z,26.10
2017-07-22T06:16:01.437Z,20.97
2017-07-22T06:21:04.609Z,25.20
2017-07-22T06:26:08.561Z,25.87
2017-07-22T06:31:11.757Z,23.73
2017-07-22T06:36:14.955Z,22.20
2017-07-22T06:41:18.211Z,23.73
2017-07-22T06:46:21.401Z,23.60
2017-07-22T06:51:24.630Z,28.60
2017-07-22T06:56:27.810Z,23.40
2017-07-22T07:01:31.028Z,19.50
2017-07-22T07:06:34.211Z,12.43
2017-07-22T07:11:37.419Z,17.73
2017-07-22T07:16:40.611Z,20.70
2017-07-22T07:21:43.840Z,12.00
2017-07-22T07:26:47.096Z,13.43
2017-07-22T07:31:51.067Z,9.40
2017-07-22T07:36:54.257Z,7.33
2017-07-22T07:41:57.468Z,6.43
2017-07-22T07:47:01.439Z,10.63
2017-07-22T07:52:04.645Z,5.00
2017-07-22T07:57:07.825Z,5.20
2017-07-22T08:02:11.024Z,4.80
2017-07-22T08:07:14.213Z,6.40
2017-07-22T08:12:17.404Z,8.03
2017-07-22T08:17:20.606Z,7.50
2017-07-22T08:22:24.615Z,5.40
2017-07-22T08:27:27.814Z,10.53
2017-07-22T08:32:30.988Z,4.07
2017-07-22T08:37:34.175Z,9.20
2017-07-22T08:42:37.370Z,5.40
2017-07-22T08:47:41.339Z,4.03
2017-07-22T08:52:44.596Z,6.13
2017-07-22T08:57:48.543Z,6.20
2017-07-22T09:02:51.720Z,4.53
2017-07-22T09:07:55.802Z,5.10
2017-07-22T09:12:59.003Z,8.50
2017-07-22T09:18:02.196Z,7.60
2017-07-22T09:23:05.588Z,7.50
2017-07-22T09:28:09.533Z,8.90
2017-07-22T09:33:12.766Z,7.63
2017-07-22T09:38:15.965Z,9.80
2017-07-22T09:43:19.173Z,10.63
2017-07-22T09:48:22.352Z,10.17
2017-07-22T09:53:25.555Z,9.97
2017-07-22T09:58:28.737Z,8.57
2017-07-22T10:03:32.687Z,8.33
2017-07-22T10:08:35.891Z,8.60
2017-07-22T10:13:39.068Z,12.43
2017-07-22T10:18:42.277Z,8.83
2017-07-22T10:23:45.429Z,10.40
2017-07-22T10:28:48.666Z,10.00
2017-07-22T10:33:51.852Z,8.43
2017-07-22T10:38:55.046Z,9.33
2017-07-22T10:43:58.253Z,13.33
2017-07-22T10:49:01.448Z,12.67
2017-07-22T10:54:04.678Z,9.77
2017-07-22T10:59:07.859Z,10.87
2017-07-22T11:04:11.073Z,12.13
2017-07-22T11:09:14.265Z,11.93
2017-07-22T11:14:17.831Z,14.33
2017-07-22T11:19:21.021Z,13.13
2017-07-22T11:24:24.238Z,11.33
2017-07-22T11:29:27.504Z,14.33
2017-07-22T11:34:31.470Z,9.70
2017-07-22T11:39:34.663Z,10.20
2017-07-22T11:44:37.856Z,9.90
2017-07-22T11:49:41.051Z,9.83
2017-07-22T11:54:44.252Z,6.53
2017-07-22T11:59:47.427Z,5.10
2017-07-22T12:04:50.626Z,5.30
2017-07-22T12:09:53.820Z,4.83
2017-07-22T12:14:57.016Z,5.57
2017-07-22T12:20:00.229Z,5.30
2017-07-22T12:25:03.435Z,4.67
2017-07-22T12:30:06.630Z,5.07
2017-07-22T12:35:09.838Z,5.17
2017-07-22T12:40:13.027Z,4.53
2017-07-22T12:45:16.212Z,5.20
2017-07-22T12:50:20.174Z,5.23
2017-07-22T12:55:23.383Z,6.10
2017-07-22T13:00:26.577Z,5.70
2017-07-22T13:05:29.785Z,5.73
2017-07-22T13:10:32.964Z,5.30
2017-07-22T13:15:36.952Z,5.60
2017-07-22T13:20:40.211Z,5.37
2017-07-22T13:25:43.422Z,4.57
2017-07-22T13:30:46.676Z,4.90
2017-07-22T13:35:49.897Z,5.17
2017-07-22T13:40:53.118Z,5.93
2017-07-22T13:45:56.309Z,11.63
2017-07-22T13:50:59.544Z,7.37
2017-07-22T13:56:02.742Z,6.50
2017-07-22T14:01:06.720Z,7.63
2017-07-22T14:06:09.909Z,7.60
2017-07-22T14:11:13.114Z,9.47
2017-07-22T14:16:16.315Z,7.43
2017-07-22T14:21:19.506Z,10.30
2017-07-22T14:26:23.528Z,7.10
2017-07-22T14:31:27.490Z,6.17
2017-07-22T14:36:30.787Z,15.63
2017-07-22T14:41:33.980Z,11.70
2017-07-22T14:46:37.167Z,7.93
2017-07-22T14:51:40.357Z,8.77
2017-07-22T14:56:43.601Z,17.20
2017-07-22T15:01:47.541Z,11.43
2017-07-22T15:06:50.750Z,7.03
2017-07-22T15:11:53.957Z,14.87
2017-07-22T15:16:57.205Z,29.20
2017-07-22T15:22:00.423Z,20.97
2017-07-22T15:27:03.752Z,8.03
2017-07-22T15:32:07.721Z,13.07
2017-07-22T15:37:10.899Z,9.90
2017-07-22T15:42:14.129Z,15.10
2017-07-22T15:47:17.320Z,6.20
2017-07-22T15:52:20.548Z,6.07
2017-07-22T15:57:23.748Z,9.83
2017-07-22T16:02:26.949Z,8.90
2017-07-22T16:07:30.143Z,6.23
2017-07-22T16:12:33.323Z,8.27
2017-07-22T16:17:37.279Z,6.70
2017-07-22T16:22:40.478Z,13.90
2017-07-22T16:27:43.690Z,12.80
2017-07-22T16:32:46.882Z,9.93
2017-07-22T16:37:50.139Z,9.33
2017-07-22T16:42:53.342Z,10.73
2017-07-22T16:47:56.547Z,10.60
2017-07-22T16:52:59.776Z,8.90
2017-07-22T16:58:02.985Z,8.03
2017-07-22T17:03:06.200Z,12.47
2017-07-22T17:08:09.411Z,10.20
2017-07-22T17:13:13.488Z,12.53
2017-07-22T17:18:16.783Z,10.23
2017-07-22T17:23:19.995Z,7.77
2017-07-22T17:28:23.204Z,8.93
2017-07-22T17:33:26.423Z,9.60
2017-07-22T17:38:29.632Z,7.90
2017-07-22T17:43:32.849Z,10.90
2017-07-22T17:48:36.043Z,9.50
2017-07-22T17:53:39.311Z,10.23
2017-07-22T17:58:43.287Z,8.37
2017-07-22T18:03:46.501Z,9.07
2017-07-22T18:08:49.708Z,10.83
2017-07-22T18:13:52.922Z,8.90
2017-07-22T18:18:56.338Z,7.43
2017-07-22T18:23:59.530Z,8.60
2017-07-22T18:29:02.742Z,9.27
2017-07-22T18:34:05.941Z,45.73
2017-07-22T18:39:09.119Z,11.10
2017-07-22T18:44:12.349Z,14.13
2017-07-22T18:49:15.545Z,10.90
2017-07-22T18:54:18.738Z,10.00
2017-07-22T18:59:21.963Z,10.37
2017-07-22T19:04:25.217Z,12.47
2017-07-22T19:09:29.212Z,12.40
2017-07-22T19:14:32.419Z,9.80
2017-07-22T19:19:35.659Z,9.67
2017-07-22T19:24:38.860Z,10.27
2017-07-22T19:29:42.094Z,12.27
2017-07-22T19:34:45.289Z,11.30
2017-07-22T19:39:49.242Z,13.27
2017-07-22T19:44:52.451Z,10.50
2017-07-22T19:49:55.734Z,12.63
2017-07-22T19:54:59.672Z,8.73
2017-07-22T20:00:02.907Z,10.33
2017-07-22T20:05:06.114Z,10.13
2017-07-22T20:10:09.343Z,11.23
2017-07-22T20:15:12.562Z,11.97
2017-07-22T20:20:15.777Z,8.83
2017-07-22T20:25:19.741Z,11.70
2017-07-22T20:30:22.940Z,10.10
2017-07-22T20:35:26.076Z,9.50
2017-07-22T20:40:29.256Z,10.13
2017-07-22T20:45:32.442Z,10.63
2017-07-22T20:50:36.402Z,11.63
2017-07-22T20:55:39.570Z,12.87
2017-07-22T21:00:42.743Z,12.70
2017-07-22T21:05:45.957Z,14.10
2017-07-22T21:10:49.189Z,12.57
2017-07-22T21:15:53.177Z,15.30
2017-07-22T21:20:56.378Z,14.73
2017-07-22T21:25:59.602Z,15.60
2017-07-22T21:31:02.796Z,13.70
2017-07-22T21:36:06.001Z,12.37
2017-07-22T21:41:09.201Z,15.60
2017-07-22T21:46:12.414Z,13.63
2017-07-22T21:51:15.609Z,11.83
2017-07-22T21:56:18.798Z,16.63
2017-07-22T22:01:22.019Z,13.17
2017-07-22T22:06:25.330Z,14.93
2017-07-22T22:11:28.530Z,14.43
2017-07-22T22:16:32.026Z,12.57
2017-07-22T22:21:35.164Z,13.63
2017-07-22T22:26:38.373Z,15.50
2017-07-22T22:31:41.562Z,19.80
2017-07-22T22:36:44.859Z,13.60
2017-07-22T22:41:48.023Z,6.93
2017-07-22T22:46:51.995Z,4.83
2017-07-22T22:51:55.154Z,6.73
2017-07-22T22:56:59.094Z,5.60
2017-07-22T23:02:02.289Z,5.70
2017-07-22T23:07:06.393Z,5.30
2017-07-22T23:12:09.600Z,5.73
2017-07-22T23:17:12.782Z,5.53
2017-07-22T23:22:15.973Z,5.47
2017-07-22T23:27:19.189Z,4.53
2017-07-22T23:32:22.434Z,5.03
2017-07-22T23:37:25.676Z,5.73
2017-07-22T23:42:28.863Z,6.33
2017-07-22T23:47:32.887Z,7.10
2017-07-22T23:52:36.192Z,7.53
2017-07-22T23:57:39.384Z,10.07
